Opelika, Texas
Current Conditions -  °F | °C
As of 6:55 PM on Tuesday 21 Oct 2014 (Local Time) from KF44 Reporting Station
Clear Clear  
Wind Chill: 72°   Ceiling: Unl
Heat Index: 72°   Visibility: 10mi
Dew Point: 61°   Wind: 0mph
Humidity: 69%   Direction: NA
Pressure: 30.02"   Gusts: NA
Location:  32.327°N, 95.8011°W
Report Text: KF44 212355Z AUTO 00000KT 10SM CLR 22/16 A3002 RMK AO2
Loading
Personal Weather Stations






























Interactive Weather Map
Tropical Storm Tracking
New forecast layout! Learn more

10-Day Weather Forecast

Advertisements
Track Severe Weather on mobile